Terminal Aerodrome Forecast
Issued by NWS Charleston, WV

Current Version | Previous Version | Text Only | Print | Product List | Glossary Off
Versions: 1 2 3 4 5 6 7 8 9 10 11 12 13 14 15 16 17 18 19 20 21

000
FTUS41 KRLX 071400 AAA
TAFPKB
TAF AMD
KPKB 071446Z 0715/0812 22011KT P6SM BKN110
     FM071700 22011G17KT P6SM BKN110
     FM072300 22010KT 6SM SHRA BR VCTS BKN060CB
     FM080600 21007KT 6SM SHRA BR VCTS OVC035CB
      AMD NOT SKED=

USA.gov is the U.S. government's official web portal to all federal, state and local government web resources and services.